ADDS METAR Data INFO
IDs: Format: Raw Decoded Include TAF

Data at: 0838 UTC 21 Oct 2017

KPWA 210753Z 16023G27KT 10SM BKN020 OVC025 21/18 A2981 RMK AO2 PK WND 16032/0738 SLP081 T02110183
KPWA 210740Z 16021G32KT 10SM BKN020 21/18 A2981 RMK AO2 PK WND 16032/0738 T02110183
KPWA 210704Z 17020G28KT 10SM SCT019 SCT024 21/18 A2982 RMK AO2 PK WND 17028/0659 T02110178
KPWA 210653Z 17023G34KT 10SM SCT019 BKN025 21/18 A2982 RMK AO2 PK WND 17034/0652 SLP086 T02110178
KPWA 210604Z 16018G27KT 10SM SCT022 22/18 A2984 RMK AO2 T02170178
KPWA 210553Z 16021G29KT 10SM BKN022 22/18 A2984 RMK AO2 PK WND 16029/0548 SLP091 T02170178 10239 20217 402670161 50001
KPWA 210542Z 17019KT 10SM BKN022 22/18 A2985 RMK AO2 PK WND 16028/0503 T02170178
KPWA 210453Z 16019G28KT 10SM BKN039 22/18 A2985 RMK AO2 PK WND 15028/0442 SLP096 T02220178
KPWA 210353Z 16016G23KT 10SM FEW060 22/18 A2986 RMK AO2 PK WND 17028/0300 SLP097 T02220183
KPWA 210253Z 17019G28KT 10SM BKN049 23/18 A2984 RMK AO2 PK WND 17032/0216 SLP093 T02280178 51000
KPWA 210153Z 17019G29KT 10SM CLR 23/17 A2984 RMK AO2 PK WND 17029/0146 SLP093 T02280172
KPWA 210053Z 17017G25KT 10SM CLR 23/17 A2985 RMK AO2 PK WND 16026/0023 SLP096 T02280172
KPWA 202353Z 17018G27KT 10SM CLR 24/17 A2984 RMK AO2 PK WND 17033/2300 SLP093 T02390172 10267 20239 56007
KPWA 202253Z 17024G35KT 10SM CLR 26/17 A2984 RMK AO2 PK WND 17035/2223 SLP093 T02560167
KPWA 202153Z 17019G27KT 10SM OVC044 26/17 A2985 RMK AO2 PK WND 16030/2117 SLP097 T02560167
KPWA 202053Z 17023G29KT 10SM CLR 26/16 A2986 RMK AO2 PK WND 17029/2053 SLP099 T02610156 58032
KPWA 201953Z 17017G28KT 10SM CLR 26/14 A2989 RMK AO2 PK WND 16028/1945 SLP109 T02560144
KPWA 201853Z 16021G28KT 10SM CLR 24/16 A2993 RMK AO2 PK WND 17033/1812 SLP124 T02440156
KPWA 201753Z 16024G30KT 10SM CLR 24/15 A2996 RMK AO2 PK WND 16030/1752 SLP133 T02440150 10244 20161 58023
KPWA 201653Z 16023G27KT 10SM CLR 23/16 A2999 RMK AO2 PK WND 16029/1632 SLP144 T02330156
KPWA 201553Z 16016KT 10SM CLR 22/15 A3001 RMK AO2 SLP152 T02170150
KPWA 201453Z 18015G23KT 10SM CLR 19/15 A3003 RMK AO2 SLP158 T01940150 56007
KPWA 201353Z 17013KT 10SM CLR 17/14 A3004 RMK AO2 SLP162 T01670139
KPWA 201253Z 17011KT 10SM CLR 16/13 A3003 RMK AO2 SLP160 T01610133 $
KPWA 201153Z 17014KT 10SM CLR 16/13 A3005 RMK AO2 SLP167 T01610133 10183 20161 58001 $
KPWA 201053Z AUTO 17012KT 10SM BKN055 16/13 A3006 RMK AO2 SLP168 T01610128 $
KPWA 200953Z AUTO 17012KT 10SM CLR 17/12 A3005 RMK AO2 SLP165 T01670122 $
KPWA 200853Z AUTO 16016KT 10SM CLR 17/12 A3005 RMK AO2 SLP165 T01720117 57005 $
KPWA 200753Z AUTO 17016KT 10SM CLR 17/12 A3006 RMK AO2 SLP168 T01720117 $
KPWA 200653Z AUTO 17015KT 10SM CLR 18/12 A3006 RMK AO2 SLP169 T01780117 $
KPWA 200553Z AUTO 17015KT 10SM CLR 18/11 A3007 RMK AO2 SLP171 T01780111 10217 20178 402670133 58001 $
KPWA 200453Z AUTO 17016KT 10SM CLR 19/11 A3007 RMK AO2 SLP173 T01890111 $
KPWA 200353Z AUTO 16014KT 10SM CLR 19/11 A3008 RMK AO2 SLP176 T01940111 $
KPWA 200253Z AUTO 16011KT 10SM CLR 21/11 A3007 RMK AO2 SLP175 T02060106 51006 $
KPWA 200153Z 16012KT 10SM CLR 21/10 A3007 RMK AO2 SLP174 T02060100 $
KPWA 200053Z 15012KT 10SM CLR 21/09 A3006 RMK AO2 SLP172 T02110089 $
KPWA 192353Z 14009KT 10SM CLR 22/11 A3005 RMK AO2 SLP169 T02170106 10267 20217 58003 $
KPWA 192253Z 14010KT 10SM CLR 24/11 A3005 RMK AO2 SLP167 T02390111 $
KPWA 192153Z 15010KT 10SM CLR 24/10 A3006 RMK AO2 SLP170 T02440100 $
KPWA 192053Z 15012KT 10SM CLR 26/11 A3006 RMK AO2 SLP169 T02610111 56022 $